createdAt,value
2018-08-30T00:00:05.722Z,393.87
2018-08-30T00:02:32.854Z,417.13
2018-08-30T00:04:59.994Z,368.90
2018-08-30T00:07:27.114Z,403.37
2018-08-30T00:09:54.243Z,389.87
2018-08-30T00:12:21.435Z,426.33
2018-08-30T00:14:48.606Z,279.60
2018-08-30T00:17:15.734Z,310.63
2018-08-30T00:19:42.869Z,413.73
2018-08-30T00:22:10.166Z,251.30
2018-08-30T00:24:37.293Z,418.50
2018-08-30T00:27:04.472Z,400.27
2018-08-30T00:29:31.603Z,359.47
2018-08-30T00:31:58.754Z,230.63
2018-08-30T00:34:26.006Z,235.10
2018-08-30T00:36:53.205Z,227.67
2018-08-30T00:39:20.334Z,317.23
2018-08-30T00:41:47.467Z,269.60
2018-08-30T00:44:14.610Z,171.10
2018-08-30T00:46:41.747Z,160.70
2018-08-30T00:49:08.893Z,143.87
2018-08-30T00:51:36.010Z,146.13
2018-08-30T00:54:03.162Z,154.73
2018-08-30T00:56:30.289Z,184.57
2018-08-30T00:58:57.507Z,148.87
2018-08-30T01:01:24.641Z,143.63
2018-08-30T01:03:51.807Z,111.67
2018-08-30T01:06:18.955Z,146.63
2018-08-30T01:08:46.106Z,249.03
2018-08-30T01:11:13.259Z,215.87
2018-08-30T01:13:40.382Z,161.77
2018-08-30T01:16:07.503Z,333.70
2018-08-30T01:18:34.658Z,143.97
2018-08-30T01:21:01.798Z,98.67
2018-08-30T01:23:28.961Z,338.53
2018-08-30T01:25:56.086Z,325.33
2018-08-30T01:28:23.254Z,354.63
2018-08-30T01:30:50.435Z,402.83
2018-08-30T01:33:17.599Z,378.17
2018-08-30T01:35:44.746Z,409.53
2018-08-30T01:38:11.861Z,395.47
2018-08-30T01:40:39.049Z,436.63
2018-08-30T01:43:06.173Z,364.67
2018-08-30T01:45:33.329Z,438.80
2018-08-30T01:48:00.475Z,397.40
2018-08-30T01:50:27.673Z,364.20
2018-08-30T01:52:54.793Z,247.80
2018-08-30T01:55:21.937Z,382.93
2018-08-30T01:57:49.042Z,393.80
2018-08-30T02:00:16.184Z,381.80
2018-08-30T02:02:43.314Z,297.27
2018-08-30T02:05:10.414Z,259.93
2018-08-30T02:07:37.525Z,275.63
2018-08-30T02:10:05.089Z,359.87
2018-08-30T02:12:32.191Z,283.27
2018-08-30T02:14:59.289Z,243.30
2018-08-30T02:17:26.429Z,238.07
2018-08-30T02:19:53.544Z,233.27
2018-08-30T02:22:20.685Z,234.90
2018-08-30T02:24:47.784Z,250.20
2018-08-30T02:27:14.989Z,221.50
2018-08-30T02:29:42.094Z,237.37
2018-08-30T02:32:09.203Z,259.53
2018-08-30T02:34:36.309Z,256.43
2018-08-30T02:37:03.444Z,225.70
2018-08-30T02:39:30.574Z,231.07
2018-08-30T02:41:57.705Z,218.23
2018-08-30T02:44:24.831Z,244.47
2018-08-30T02:46:51.982Z,234.17
2018-08-30T02:49:19.122Z,238.23
2018-08-30T02:51:46.229Z,257.70
2018-08-30T02:54:13.485Z,273.83
2018-08-30T02:56:40.593Z,274.20
2018-08-30T02:59:07.720Z,251.50
2018-08-30T03:01:34.844Z,296.83
2018-08-30T03:04:02.265Z,291.00
2018-08-30T03:06:29.377Z,239.43
2018-08-30T03:08:56.481Z,282.20
2018-08-30T03:11:23.919Z,245.70
2018-08-30T03:13:51.046Z,320.17
2018-08-30T03:16:18.253Z,285.97
2018-08-30T03:18:45.586Z,297.37
2018-08-30T03:21:12.704Z,248.77
2018-08-30T03:23:39.946Z,278.43
2018-08-30T03:26:07.233Z,252.47
2018-08-30T03:28:34.333Z,303.60
2018-08-30T03:31:01.659Z,259.17
2018-08-30T03:33:28.784Z,244.87
2018-08-30T03:35:55.926Z,237.50
2018-08-30T03:38:23.161Z,276.57
2018-08-30T03:40:50.270Z,291.27
2018-08-30T03:43:17.373Z,214.93
2018-08-30T03:45:44.749Z,243.03
2018-08-30T03:48:11.913Z,222.77
2018-08-30T03:50:39.033Z,244.90
2018-08-30T03:53:06.685Z,240.17
2018-08-30T03:55:33.813Z,229.40
2018-08-30T03:58:00.930Z,249.00
2018-08-30T04:00:28.205Z,200.73
2018-08-30T04:02:55.320Z,233.93
2018-08-30T04:05:22.586Z,215.50
2018-08-30T04:07:49.721Z,206.63
2018-08-30T04:10:16.841Z,189.17
2018-08-30T04:12:44.205Z,211.40
2018-08-30T04:15:11.326Z,191.30
2018-08-30T04:17:38.421Z,195.77
2018-08-30T04:20:05.827Z,219.47
2018-08-30T04:22:32.945Z,233.33
2018-08-30T04:25:00.057Z,214.43
2018-08-30T04:27:27.666Z,215.83
2018-08-30T04:29:54.765Z,192.30
2018-08-30T04:32:21.889Z,209.30
2018-08-30T04:34:49.321Z,193.93
2018-08-30T04:37:16.526Z,201.73
2018-08-30T04:39:43.630Z,197.20
2018-08-30T04:42:11.103Z,212.70
2018-08-30T04:44:38.162Z,215.80
2018-08-30T04:47:05.282Z,203.83
2018-08-30T04:49:32.479Z,207.37
2018-08-30T04:51:59.589Z,207.90
2018-08-30T04:54:26.869Z,219.93
2018-08-30T04:56:53.994Z,208.27
2018-08-30T04:59:21.101Z,221.27
2018-08-30T05:01:48.457Z,198.93
2018-08-30T05:04:15.557Z,181.40
2018-08-30T05:06:42.658Z,194.53
2018-08-30T05:09:11.118Z,204.00
2018-08-30T05:11:38.243Z,199.77
2018-08-30T05:14:05.613Z,183.00
2018-08-30T05:16:33.294Z,185.40
2018-08-30T05:19:00.309Z,202.53
2018-08-30T05:21:27.427Z,191.47
2018-08-30T05:23:55.037Z,177.60
2018-08-30T05:26:22.150Z,177.50
2018-08-30T05:28:49.250Z,180.90
2018-08-30T05:31:17.001Z,164.47
2018-08-30T05:33:44.118Z,168.13
2018-08-30T05:36:11.226Z,195.07
2018-08-30T05:38:38.917Z,192.60
2018-08-30T05:41:06.065Z,168.60
2018-08-30T05:43:33.169Z,189.80
2018-08-30T05:46:00.760Z,179.50
2018-08-30T05:48:27.861Z,165.43
2018-08-30T05:50:54.964Z,162.33
2018-08-30T05:53:22.289Z,167.57
2018-08-30T05:55:49.420Z,162.43
2018-08-30T05:58:16.518Z,187.03
2018-08-30T06:00:43.802Z,180.53
2018-08-30T06:03:10.923Z,173.10
2018-08-30T06:05:38.218Z,177.77
2018-08-30T06:08:05.317Z,178.53
2018-08-30T06:10:32.716Z,170.13
2018-08-30T06:12:59.912Z,176.97
2018-08-30T06:15:27.027Z,167.67
2018-08-30T06:17:54.294Z,182.50
2018-08-30T06:20:22.053Z,180.10
2018-08-30T06:22:49.178Z,185.50
2018-08-30T06:25:16.293Z,163.93
2018-08-30T06:27:43.753Z,165.17
2018-08-30T06:30:11.193Z,181.17
2018-08-30T06:32:38.330Z,165.83
2018-08-30T06:35:05.924Z,174.30
2018-08-30T06:37:33.074Z,186.57
2018-08-30T06:40:00.205Z,190.93
2018-08-30T06:42:27.856Z,181.13
2018-08-30T06:44:54.961Z,193.20
2018-08-30T06:47:22.093Z,165.70
2018-08-30T06:49:49.497Z,178.97
2018-08-30T06:52:16.603Z,164.80
2018-08-30T06:54:43.717Z,172.83
2018-08-30T06:57:10.956Z,174.60
2018-08-30T06:59:38.053Z,180.00
2018-08-30T07:02:05.654Z,191.37
2018-08-30T07:04:33.030Z,165.27
2018-08-30T07:07:00.129Z,170.40
2018-08-30T07:09:27.673Z,158.37
2018-08-30T07:11:54.841Z,172.30
2018-08-30T07:14:21.942Z,175.03
2018-08-30T07:16:49.145Z,163.80
2018-08-30T07:19:16.253Z,172.03
2018-08-30T07:21:43.354Z,174.00
2018-08-30T07:24:10.780Z,163.00
2018-08-30T07:26:37.825Z,173.63
2018-08-30T07:29:04.933Z,160.70
2018-08-30T07:31:32.277Z,182.53
2018-08-30T07:33:59.393Z,185.20
2018-08-30T07:36:26.484Z,183.77
2018-08-30T07:38:53.866Z,176.93
2018-08-30T07:41:20.993Z,203.27
2018-08-30T07:43:48.336Z,178.13
2018-08-30T07:46:15.693Z,176.83
2018-08-30T07:48:42.793Z,173.83
2018-08-30T07:51:10.151Z,186.63
2018-08-30T07:53:37.244Z,204.50
2018-08-30T07:56:04.510Z,177.67
2018-08-30T07:58:32.253Z,190.47
2018-08-30T08:00:59.598Z,183.47
2018-08-30T08:03:26.702Z,220.43
2018-08-30T08:05:54.339Z,228.90
2018-08-30T08:08:21.381Z,247.20
2018-08-30T08:10:48.516Z,264.80
2018-08-30T08:13:15.982Z,289.30
2018-08-30T08:15:43.105Z,336.83
2018-08-30T08:18:10.204Z,328.87
2018-08-30T08:20:37.945Z,310.50
2018-08-30T08:23:05.095Z,293.37
2018-08-30T08:25:32.202Z,298.83
2018-08-30T08:27:59.833Z,291.37
2018-08-30T08:30:26.929Z,265.93
2018-08-30T08:32:54.601Z,278.20
2018-08-30T08:35:22.373Z,263.27
2018-08-30T08:37:49.561Z,285.73
2018-08-30T08:40:16.670Z,267.83
2018-08-30T08:42:44.486Z,283.10
2018-08-30T08:45:11.621Z,288.47
2018-08-30T08:47:38.739Z,286.77
2018-08-30T08:50:06.817Z,269.53
2018-08-30T08:52:33.923Z,275.87
2018-08-30T08:55:01.047Z,291.23
2018-08-30T08:57:28.885Z,288.50
2018-08-30T08:59:56.014Z,279.13
2018-08-30T09:02:23.121Z,289.27
2018-08-30T09:04:51.165Z,273.37
2018-08-30T09:07:18.306Z,280.83
2018-08-30T09:09:45.409Z,273.20
2018-08-30T09:12:13.145Z,265.60
2018-08-30T09:14:40.249Z,261.63
2018-08-30T09:17:07.381Z,291.37
2018-08-30T09:19:34.993Z,305.50
2018-08-30T09:22:02.109Z,327.00
2018-08-30T09:24:29.221Z,345.83
2018-08-30T09:26:56.856Z,341.00
2018-08-30T09:29:23.980Z,368.83
2018-08-30T09:31:51.262Z,413.53
2018-08-30T09:34:18.706Z,378.03
2018-08-30T09:36:45.838Z,380.23
2018-08-30T09:39:12.957Z,389.77
2018-08-30T09:41:40.450Z,375.70
2018-08-30T09:44:07.590Z,387.07
2018-08-30T09:46:34.954Z,466.73
2018-08-30T09:49:02.614Z,391.97
2018-08-30T09:51:29.745Z,381.17
2018-08-30T09:53:56.997Z,372.87
2018-08-30T09:56:24.269Z,385.40
2018-08-30T09:58:51.393Z,380.50
2018-08-30T10:01:24.613Z,358.50
2018-08-30T10:03:51.841Z,363.80
2018-08-30T10:06:19.129Z,455.07
2018-08-30T10:08:46.249Z,397.07
2018-08-30T10:11:13.357Z,439.87
2018-08-30T10:13:40.869Z,413.53
2018-08-30T10:16:07.990Z,403.37
2018-08-30T10:18:35.101Z,443.83
2018-08-30T10:21:02.273Z,390.83
2018-08-30T10:23:29.398Z,442.53
2018-08-30T10:25:56.496Z,440.73
2018-08-30T10:28:23.605Z,447.53
2018-08-30T10:30:50.721Z,399.83
2018-08-30T10:33:18.277Z,366.80
2018-08-30T10:35:45.385Z,403.03
2018-08-30T10:38:12.500Z,332.03
2018-08-30T10:40:39.956Z,386.87
2018-08-30T10:43:07.082Z,332.50
2018-08-30T10:45:34.196Z,326.13
2018-08-30T10:48:01.741Z,338.30
2018-08-30T10:50:28.920Z,341.33
2018-08-30T10:52:56.029Z,438.33
2018-08-30T10:55:23.621Z,463.70
2018-08-30T10:57:50.801Z,397.10
2018-08-30T11:00:17.905Z,387.93
2018-08-30T11:02:45.361Z,429.37
2018-08-30T11:05:12.467Z,478.83
2018-08-30T11:07:39.609Z,589.93
2018-08-30T11:10:07.022Z,638.13
2018-08-30T11:12:34.141Z,610.77
2018-08-30T11:15:01.246Z,612.10
2018-08-30T11:17:28.365Z,609.03
2018-08-30T11:19:55.457Z,628.63
2018-08-30T11:22:22.949Z,694.77
2018-08-30T11:24:50.064Z,611.10
2018-08-30T11:27:17.324Z,600.10
2018-08-30T11:29:44.813Z,558.73
2018-08-30T11:32:11.905Z,583.73
2018-08-30T11:34:39.028Z,519.13
2018-08-30T11:37:06.413Z,497.13
2018-08-30T11:39:33.538Z,531.53
2018-08-30T11:42:00.638Z,442.07
2018-08-30T11:44:27.941Z,523.37
2018-08-30T11:46:55.036Z,508.17
2018-08-30T11:49:22.166Z,544.47
2018-08-30T11:51:49.353Z,534.20
2018-08-30T11:54:16.554Z,597.23
2018-08-30T11:56:43.585Z,627.97
2018-08-30T11:59:10.720Z,615.13
2018-08-30T12:01:37.833Z,658.33
2018-08-30T12:04:05.406Z,705.50
2018-08-30T12:06:32.529Z,662.77
2018-08-30T12:08:59.650Z,650.30
2018-08-30T12:11:27.331Z,680.30
2018-08-30T12:13:54.442Z,659.63
2018-08-30T12:16:21.657Z,751.90
2018-08-30T12:18:49.336Z,677.23
2018-08-30T12:21:16.465Z,778.23
2018-08-30T12:23:43.577Z,763.57
2018-08-30T12:26:11.281Z,660.97
2018-08-30T12:28:38.740Z,658.13
2018-08-30T12:31:05.818Z,630.43
2018-08-30T12:33:33.699Z,609.03
2018-08-30T12:36:00.929Z,589.40
2018-08-30T12:38:27.885Z,652.73
2018-08-30T12:40:55.498Z,640.23
2018-08-30T12:43:22.598Z,705.70
2018-08-30T12:45:49.707Z,608.60
2018-08-30T12:48:17.126Z,595.27
2018-08-30T12:50:44.394Z,672.97
2018-08-30T12:53:11.533Z,599.70
2018-08-30T12:55:38.841Z,580.23
2018-08-30T12:58:06.275Z,685.33
2018-08-30T13:00:33.937Z,600.37
2018-08-30T13:03:01.424Z,566.07
2018-08-30T13:05:28.648Z,558.17
2018-08-30T13:07:55.870Z,569.27
2018-08-30T13:10:23.078Z,600.03
2018-08-30T13:12:50.175Z,560.27
2018-08-30T13:15:17.663Z,631.60
2018-08-30T13:17:44.680Z,621.87
2018-08-30T13:20:11.801Z,646.93
2018-08-30T13:22:39.499Z,644.00
2018-08-30T13:25:06.445Z,685.17
2018-08-30T13:27:33.613Z,688.50
2018-08-30T13:30:01.347Z,769.07
2018-08-30T13:32:28.468Z,654.57
2018-08-30T13:34:55.665Z,672.47
2018-08-30T13:37:23.022Z,661.27
2018-08-30T13:39:50.121Z,657.00
2018-08-30T13:42:17.487Z,673.33
2018-08-30T13:44:44.940Z,648.27
2018-08-30T13:47:11.909Z,721.77
2018-08-30T13:49:38.910Z,679.13
2018-08-30T13:52:06.462Z,756.23
2018-08-30T13:54:33.684Z,747.77
2018-08-30T13:57:01.240Z,794.63
2018-08-30T13:59:28.377Z,756.30
2018-08-30T14:01:55.136Z,696.37
2018-08-30T14:04:22.648Z,780.87
2018-08-30T14:06:49.736Z,731.53
2018-08-30T14:09:16.874Z,683.77
2018-08-30T14:11:44.365Z,614.60
2018-08-30T14:14:11.623Z,617.63
2018-08-30T14:16:38.698Z,594.80
2018-08-30T14:19:05.950Z,542.77
2018-08-30T14:21:33.017Z,566.93
2018-08-30T14:24:00.130Z,518.00
2018-08-30T14:26:27.894Z,590.47
2018-08-30T14:28:55.332Z,507.17
2018-08-30T14:31:22.445Z,498.70
2018-08-30T14:33:49.960Z,509.90
2018-08-30T14:36:17.062Z,460.17
2018-08-30T14:38:44.296Z,428.13
2018-08-30T14:41:12.026Z,542.37
2018-08-30T14:43:38.966Z,514.90
2018-08-30T14:46:06.086Z,571.53
2018-08-30T14:48:33.593Z,538.40
2018-08-30T14:51:00.685Z,627.30
2018-08-30T14:53:27.812Z,625.20
2018-08-30T14:55:55.069Z,583.77
2018-08-30T14:58:22.161Z,546.13
2018-08-30T15:00:49.555Z,574.23
2018-08-30T15:03:17.015Z,569.63
2018-08-30T15:05:44.124Z,561.40
2018-08-30T15:08:11.245Z,643.57
2018-08-30T15:10:38.381Z,668.77
2018-08-30T15:13:05.501Z,620.17
2018-08-30T15:15:33.065Z,665.10
2018-08-30T15:18:00.168Z,614.97
2018-08-30T15:20:27.418Z,611.87
2018-08-30T15:22:55.065Z,650.60
2018-08-30T15:25:22.181Z,636.63
2018-08-30T15:27:49.301Z,575.13
2018-08-30T15:30:16.805Z,588.87
2018-08-30T15:32:43.909Z,558.17
2018-08-30T15:35:11.032Z,590.17
2018-08-30T15:37:38.552Z,584.33
2018-08-30T15:40:05.686Z,604.07
2018-08-30T15:42:32.794Z,624.37
2018-08-30T15:45:00.166Z,597.90
2018-08-30T15:47:27.463Z,645.83
2018-08-30T15:49:54.414Z,594.03
2018-08-30T15:52:21.609Z,573.90
2018-08-30T15:54:48.705Z,571.83
2018-08-30T15:57:16.018Z,527.07
2018-08-30T15:59:43.047Z,565.63
2018-08-30T16:02:10.181Z,543.90
2018-08-30T16:04:37.419Z,542.73
2018-08-30T16:07:04.550Z,483.13
2018-08-30T16:09:31.650Z,566.77
2018-08-30T16:11:59.734Z,470.33
2018-08-30T16:14:26.838Z,445.93
2018-08-30T16:16:53.945Z,466.13
2018-08-30T16:19:21.406Z,503.77
2018-08-30T16:21:48.541Z,431.70
2018-08-30T16:24:15.707Z,440.77
2018-08-30T16:26:43.362Z,460.87
2018-08-30T16:29:10.568Z,486.43
2018-08-30T16:31:37.621Z,475.10
2018-08-30T16:34:04.926Z,411.20
2018-08-30T16:36:32.164Z,409.00
2018-08-30T16:38:59.352Z,388.03
2018-08-30T16:41:26.677Z,411.17
2018-08-30T16:43:53.872Z,384.83
2018-08-30T16:46:20.893Z,381.93
2018-08-30T16:48:48.176Z,394.73
2018-08-30T16:51:15.172Z,382.63
2018-08-30T16:53:42.634Z,341.00
2018-08-30T16:56:09.930Z,342.43
2018-08-30T16:58:36.961Z,402.33
2018-08-30T17:01:04.358Z,339.43
2018-08-30T17:03:31.485Z,319.53
2018-08-30T17:05:58.590Z,310.00
2018-08-30T17:08:26.595Z,322.13
2018-08-30T17:10:53.558Z,313.07
2018-08-30T17:13:20.759Z,304.90
2018-08-30T17:15:48.678Z,291.33
2018-08-30T17:18:15.788Z,281.47
2018-08-30T17:20:46.647Z,295.63
2018-08-30T17:23:13.809Z,296.50
2018-08-30T17:25:42.275Z,283.83
2018-08-30T17:28:09.361Z,297.27
2018-08-30T17:30:36.737Z,275.47
2018-08-30T17:33:04.213Z,281.57
2018-08-30T17:35:31.342Z,262.00
2018-08-30T17:37:58.461Z,283.33
2018-08-30T17:40:25.776Z,263.70
2018-08-30T17:42:52.880Z,249.80
2018-08-30T17:45:20.385Z,248.50
2018-08-30T17:47:47.910Z,234.33
2018-08-30T17:50:15.546Z,248.03
2018-08-30T17:52:42.560Z,249.10
2018-08-30T17:55:10.567Z,250.07
2018-08-30T17:57:37.672Z,256.80
2018-08-30T18:00:06.686Z,229.73
2018-08-30T18:02:33.910Z,259.70
2018-08-30T18:05:01.037Z,262.63
2018-08-30T18:07:28.256Z,249.10
2018-08-30T18:09:55.800Z,231.50
2018-08-30T18:12:22.923Z,225.57
2018-08-30T18:14:50.026Z,222.77
2018-08-30T18:17:17.494Z,243.23
2018-08-30T18:19:44.618Z,243.43
2018-08-30T18:22:11.718Z,250.00
2018-08-30T18:24:39.294Z,241.77
2018-08-30T18:27:06.521Z,252.87
2018-08-30T18:29:33.626Z,259.37
2018-08-30T18:32:01.028Z,241.23
2018-08-30T18:34:28.138Z,241.17
2018-08-30T18:36:55.338Z,259.77
2018-08-30T18:39:22.625Z,252.10
2018-08-30T18:41:49.722Z,267.67
2018-08-30T18:44:16.985Z,242.37
2018-08-30T18:46:44.465Z,177.60
2018-08-30T18:49:11.593Z,226.23
2018-08-30T18:51:38.842Z,257.40
2018-08-30T18:54:05.998Z,235.07
2018-08-30T18:56:33.097Z,242.17
2018-08-30T18:59:00.697Z,222.70
2018-08-30T19:01:27.909Z,216.50
2018-08-30T19:03:55.029Z,230.93
2018-08-30T19:06:22.361Z,229.10
2018-08-30T19:08:49.689Z,247.03
2018-08-30T19:11:16.808Z,254.90
2018-08-30T19:13:44.333Z,259.53
2018-08-30T19:16:17.218Z,232.67
2018-08-30T19:18:50.344Z,250.07
2018-08-30T19:21:17.697Z,226.03
2018-08-30T19:23:44.801Z,236.67
2018-08-30T19:26:11.896Z,254.93
2018-08-30T19:28:39.433Z,237.30
2018-08-30T19:31:06.541Z,270.07
2018-08-30T19:33:33.654Z,253.03
2018-08-30T19:36:06.423Z,256.87
2018-08-30T19:38:33.614Z,263.70
2018-08-30T19:41:06.557Z,255.20
2018-08-30T19:43:33.897Z,254.53
2018-08-30T19:46:01.021Z,263.00
2018-08-30T19:48:28.239Z,272.60
2018-08-30T19:50:55.661Z,247.40
2018-08-30T19:53:22.751Z,246.37
2018-08-30T19:55:49.842Z,227.03
2018-08-30T19:58:17.377Z,223.40
2018-08-30T20:00:44.502Z,258.30
2018-08-30T20:03:11.710Z,240.73
2018-08-30T20:05:39.704Z,209.30
2018-08-30T20:08:06.891Z,246.07
2018-08-30T20:10:34.196Z,240.17
2018-08-30T20:13:01.852Z,257.63
2018-08-30T20:15:29.029Z,227.97
2018-08-30T20:17:56.154Z,241.30
2018-08-30T20:20:23.739Z,213.40
2018-08-30T20:22:50.900Z,228.50
2018-08-30T20:25:18.056Z,222.33
2018-08-30T20:27:45.624Z,235.50
2018-08-30T20:30:12.738Z,229.70
2018-08-30T20:32:39.861Z,244.80
2018-08-30T20:35:07.224Z,234.40
2018-08-30T20:37:34.388Z,242.10
2018-08-30T20:40:01.645Z,227.30
2018-08-30T20:42:29.212Z,216.97
2018-08-30T20:44:56.342Z,217.60
2018-08-30T20:47:23.769Z,212.10
2018-08-30T20:49:51.226Z,221.30
2018-08-30T20:52:18.361Z,222.27
2018-08-30T20:54:45.861Z,245.07
2018-08-30T20:57:13.042Z,220.63
2018-08-30T20:59:40.189Z,237.83
2018-08-30T21:02:07.594Z,223.53
2018-08-30T21:04:34.737Z,246.73
2018-08-30T21:07:02.706Z,216.57
2018-08-30T21:09:30.129Z,225.83
2018-08-30T21:11:57.421Z,219.23
2018-08-30T21:14:24.645Z,239.47
2018-08-30T21:16:52.001Z,217.90
2018-08-30T21:19:19.133Z,219.23
2018-08-30T21:21:46.250Z,234.77
2018-08-30T21:24:13.717Z,217.07
2018-08-30T21:26:40.824Z,233.10
2018-08-30T21:29:07.946Z,227.03
2018-08-30T21:31:35.680Z,221.23
2018-08-30T21:34:02.815Z,160.77
2018-08-30T21:36:29.994Z,238.73
2018-08-30T21:38:58.063Z,229.83
2018-08-30T21:41:25.165Z,209.87
2018-08-30T21:43:52.281Z,206.20
2018-08-30T21:46:19.652Z,235.07
2018-08-30T21:48:46.749Z,216.73
2018-08-30T21:51:13.877Z,205.57
2018-08-30T21:53:41.154Z,224.40
2018-08-30T21:56:08.312Z,205.37
2018-08-30T21:58:35.462Z,220.07
2018-08-30T22:01:02.869Z,190.63
2018-08-30T22:03:29.986Z,186.50
2018-08-30T22:05:57.126Z,199.50
2018-08-30T22:08:24.469Z,199.60
2018-08-30T22:10:51.573Z,202.77
2018-08-30T22:13:19.104Z,212.10
2018-08-30T22:15:46.497Z,204.07
2018-08-30T22:18:13.658Z,232.17
2018-08-30T22:20:41.035Z,248.97
2018-08-30T22:23:08.124Z,208.73
2018-08-30T22:25:35.238Z,219.30
2018-08-30T22:28:02.590Z,240.67
2018-08-30T22:30:29.708Z,261.17
2018-08-30T22:32:56.807Z,216.73
2018-08-30T22:35:24.217Z,204.70
2018-08-30T22:37:51.309Z,225.37
2018-08-30T22:40:18.460Z,235.50
2018-08-30T22:42:46.038Z,230.60
2018-08-30T22:45:13.150Z,223.90
2018-08-30T22:47:40.241Z,231.37
2018-08-30T22:50:07.506Z,224.03
2018-08-30T22:52:34.654Z,222.60
2018-08-30T22:55:01.973Z,223.40
2018-08-30T22:57:29.314Z,208.63
2018-08-30T22:59:56.414Z,211.90
2018-08-30T23:02:23.561Z,229.17
2018-08-30T23:04:50.677Z,227.20
2018-08-30T23:07:17.766Z,226.20
2018-08-30T23:09:44.881Z,205.83
2018-08-30T23:12:11.983Z,218.43
2018-08-30T23:14:39.085Z,220.87
2018-08-30T23:17:06.497Z,220.87
2018-08-30T23:19:33.638Z,227.17
2018-08-30T23:22:00.725Z,238.57
2018-08-30T23:24:28.029Z,240.67
2018-08-30T23:26:55.143Z,236.17
2018-08-30T23:29:22.253Z,237.00
2018-08-30T23:31:49.613Z,239.00
2018-08-30T23:34:16.802Z,252.03
2018-08-30T23:36:44.066Z,214.77
2018-08-30T23:39:12.261Z,223.13
2018-08-30T23:41:39.645Z,213.30
2018-08-30T23:44:07.269Z,217.37
2018-08-30T23:46:34.577Z,224.97
2018-08-30T23:49:01.744Z,214.13
2018-08-30T23:51:28.845Z,206.53
2018-08-30T23:53:56.026Z,221.43
2018-08-30T23:56:23.132Z,217.90
2018-08-30T23:59:01.902Z,235.27
